createdAt,value
2022-12-25T00:00:16.667Z,367.4
2022-12-25T00:02:17.832Z,359.5
2022-12-25T00:04:21.552Z,360.3
2022-12-25T00:06:25.449Z,364
2022-12-25T00:08:29.329Z,359.2
2022-12-25T00:10:33.199Z,357.3
2022-12-25T00:12:37.121Z,364.8
2022-12-25T00:14:41.080Z,367.6
2022-12-25T00:16:47.960Z,360.9
2022-12-25T00:20:55.709Z,370.5
2022-12-25T00:22:59.603Z,366.2
2022-12-25T00:25:03.527Z,367.9
2022-12-25T00:29:11.304Z,372
2022-12-25T00:33:22.117Z,363
2022-12-25T00:35:26.036Z,368.4
2022-12-25T00:36:29.508Z,359.9
2022-12-25T00:38:33.368Z,363.5
2022-12-25T00:40:37.316Z,348
2022-12-25T00:42:41.194Z,359.9
2022-12-25T00:44:48.146Z,366.5
2022-12-25T00:46:52.188Z,362.6
2022-12-25T00:48:55.963Z,362.6
2022-12-25T00:50:59.863Z,366.3
2022-12-25T00:53:03.798Z,366.5
2022-12-25T00:55:07.696Z,380.5
2022-12-25T00:59:18.567Z,380.2
2022-12-25T01:03:26.559Z,381.4
2022-12-25T01:09:38.238Z,391.5
2022-12-25T01:15:53.106Z,390.4
2022-12-25T01:17:57.051Z,393.7
2022-12-25T01:20:00.989Z,398.6
2022-12-25T01:26:12.901Z,400.4
2022-12-25T01:30:23.826Z,400.3
2022-12-25T01:32:27.816Z,402
2022-12-25T01:34:55.873Z,401.2
2022-12-25T01:36:56.346Z,403.4
2022-12-25T01:39:01.714Z,407.6
2022-12-25T01:41:08.692Z,409.6
2022-12-25T01:43:18.552Z,402.7
2022-12-25T01:45:16.590Z,407.3
2022-12-25T01:47:20.593Z,407.4
2022-12-25T01:49:24.568Z,411
2022-12-25T01:53:32.561Z,400.9
2022-12-25T01:55:39.568Z,400.1
2022-12-25T01:57:43.585Z,406.1
2022-12-25T01:59:47.558Z,404.7
2022-12-25T02:01:51.668Z,395.7
2022-12-25T02:03:55.546Z,390.5
2022-12-25T02:05:59.557Z,397.9
2022-12-25T02:08:03.690Z,398.4
2022-12-25T02:10:10.555Z,389.3
2022-12-25T02:12:14.559Z,387.4
2022-12-25T02:14:18.545Z,378.4
2022-12-25T02:16:22.606Z,388.1
2022-12-25T02:18:26.541Z,388.7
2022-12-25T02:20:30.561Z,389.4
2022-12-25T02:22:34.612Z,389.7
2022-12-25T02:24:41.629Z,388.9
2022-12-25T02:26:45.617Z,389.8
2022-12-25T02:28:49.595Z,388
2022-12-25T02:29:53.134Z,382.1
2022-12-25T02:31:57.230Z,383
2022-12-25T02:34:01.272Z,383.2
2022-12-25T02:36:05.134Z,378
2022-12-25T02:38:12.109Z,381.2
2022-12-25T02:40:16.121Z,372.3
2022-12-25T02:42:20.115Z,371
2022-12-25T02:46:28.213Z,369.7
2022-12-25T02:48:32.163Z,366.9
2022-12-25T02:50:36.107Z,369.6
2022-12-25T02:52:43.097Z,374.9
2022-12-25T02:54:47.110Z,367.4
2022-12-25T02:58:55.102Z,364.3
2022-12-25T03:00:59.186Z,360
2022-12-25T03:03:03.105Z,360.9
2022-12-25T03:07:14.044Z,350.4
2022-12-25T03:13:26.004Z,347.1
2022-12-25T03:17:33.974Z,351.9
2022-12-25T03:25:52.903Z,352.4
2022-12-25T03:26:56.508Z,352.9
2022-12-25T03:31:04.424Z,350.8
2022-12-25T03:33:17.944Z,350.1
2022-12-25T03:35:15.401Z,353.4
2022-12-25T03:37:19.317Z,349.4
2022-12-25T03:39:23.405Z,352.1
2022-12-25T03:41:27.324Z,349.8
2022-12-25T03:43:31.283Z,354.4
2022-12-25T03:45:35.269Z,351.5
2022-12-25T03:47:39.252Z,359
2022-12-25T03:51:50.257Z,357.2
2022-12-25T03:53:54.234Z,361.1
2022-12-25T03:55:58.272Z,357.3
2022-12-25T03:58:02.236Z,357.2
2022-12-25T04:00:06.217Z,360.6
2022-12-25T04:04:17.200Z,359.1
2022-12-25T04:06:21.206Z,359.6
2022-12-25T04:08:25.179Z,360.6
2022-12-25T04:10:29.197Z,360.4
2022-12-25T04:12:33.160Z,358.8
2022-12-25T04:14:37.153Z,355.6
2022-12-25T04:18:48.166Z,359.3
2022-12-25T04:20:52.157Z,357.8
2022-12-25T04:22:56.159Z,355.6
2022-12-25T04:26:03.666Z,356.1
2022-12-25T04:40:34.686Z,358.7
2022-12-25T04:42:38.667Z,356.3
2022-12-25T04:44:42.686Z,358.1
2022-12-25T04:46:49.750Z,358.4
2022-12-25T04:48:53.709Z,356.8
2022-12-25T04:50:57.761Z,354.2
2022-12-25T04:53:01.706Z,360
2022-12-25T04:55:05.735Z,364.9
2022-12-25T04:59:13.728Z,371.5
2022-12-25T05:01:20.762Z,373.3
2022-12-25T05:03:24.790Z,374.4
2022-12-25T05:05:28.736Z,381.5
2022-12-25T05:07:32.770Z,383.1
2022-12-25T05:09:36.747Z,404
2022-12-25T05:11:40.787Z,406.3
2022-12-25T05:19:59.763Z,404.8
2022-12-25T05:22:23.679Z,410.9
2022-12-25T05:24:27.723Z,400.3
2022-12-25T05:26:31.699Z,395.8
2022-12-25T05:28:38.703Z,396.1
2022-12-25T05:30:42.696Z,402.2
2022-12-25T05:32:46.714Z,397.1
2022-12-25T05:34:50.730Z,396.7
2022-12-25T05:38:58.703Z,394.3
2022-12-25T05:41:02.771Z,387.9
2022-12-25T05:43:09.723Z,387.6
2022-12-25T05:45:13.702Z,389.6
2022-12-25T05:47:17.705Z,397.3
2022-12-25T05:49:21.712Z,392.7
2022-12-25T05:51:25.664Z,410.7
2022-12-25T05:53:29.658Z,403.4
2022-12-25T05:55:33.703Z,401.5
2022-12-25T05:57:40.670Z,402.9
2022-12-25T05:59:44.630Z,400.7
2022-12-25T06:03:52.829Z,399
2022-12-25T06:05:56.608Z,405.9
2022-12-25T06:08:00.656Z,405.9
2022-12-25T06:12:11.577Z,401.7
2022-12-25T06:14:15.618Z,400.8
2022-12-25T06:16:19.670Z,400.8
2022-12-25T06:23:35.154Z,406.3
2022-12-25T06:25:42.030Z,403.8
2022-12-25T06:27:46.014Z,401.2
2022-12-25T06:29:49.994Z,391.5
2022-12-25T06:31:54.030Z,390.8
2022-12-25T06:33:57.963Z,391.2
2022-12-25T06:36:01.996Z,394.3
2022-12-25T06:38:05.949Z,397.7
2022-12-25T06:40:12.938Z,393.8
2022-12-25T06:42:16.917Z,390.9
2022-12-25T06:44:20.911Z,396
2022-12-25T06:46:24.960Z,397.1
2022-12-25T06:52:36.828Z,398
2022-12-25T06:54:43.817Z,385.2
2022-12-25T06:56:47.802Z,396.1
2022-12-25T06:58:51.765Z,399.1
2022-12-25T07:02:59.917Z,401.1
2022-12-25T07:05:03.691Z,392.8
2022-12-25T07:07:09.172Z,390
2022-12-25T07:09:14.636Z,382
2022-12-25T07:11:18.616Z,390.1
2022-12-25T07:14:26.122Z,390.4
2022-12-25T07:16:30.165Z,380.5
2022-12-25T07:18:34.038Z,389.3
2022-12-25T07:20:38.022Z,388.6
2022-12-25T07:22:44.993Z,372.3
2022-12-25T07:24:48.970Z,395.1
2022-12-25T07:26:52.943Z,398.3
2022-12-25T07:28:56.901Z,392.3
2022-12-25T07:31:00.914Z,395.9
2022-12-25T07:33:04.893Z,388.6
2022-12-25T07:35:08.860Z,397
2022-12-25T07:37:17.414Z,402.5
2022-12-25T07:39:21.360Z,392.9
2022-12-25T07:41:25.357Z,5.3
2022-12-25T07:43:29.303Z,6.1
2022-12-25T07:45:33.337Z,6.2
2022-12-25T07:47:37.248Z,3.3
2022-12-25T07:49:41.214Z,3.9
2022-12-25T07:55:57.071Z,4.5
2022-12-25T07:58:01.049Z,4.5
2022-12-25T08:00:05.009Z,5.2
2022-12-25T08:02:09.250Z,5.3
2022-12-25T08:04:13.028Z,3.5
2022-12-25T08:08:23.950Z,3.6
2022-12-25T08:10:27.908Z,4.6
2022-12-25T08:11:31.393Z,4.9
2022-12-25T08:13:35.388Z,3.1
2022-12-25T08:15:39.360Z,3.9
2022-12-25T08:17:43.354Z,5.3
2022-12-25T08:19:50.326Z,3.7
2022-12-25T08:21:54.295Z,4.7
2022-12-25T08:23:58.318Z,5.6
2022-12-25T08:26:05.354Z,5.9
2022-12-25T08:28:06.333Z,5.2
2022-12-25T08:30:10.284Z,4.9
2022-12-25T08:32:14.198Z,4.6
2022-12-25T08:34:21.185Z,6.2
2022-12-25T08:36:25.187Z,4.7
2022-12-25T08:38:29.161Z,3.7
2022-12-25T08:42:37.129Z,5.6
2022-12-25T08:44:41.100Z,6
2022-12-25T08:46:45.210Z,5.1
2022-12-25T08:50:56.044Z,4.1
2022-12-25T08:53:00.054Z,5.1
2022-12-25T08:55:04.000Z,6.9
2022-12-25T08:57:08.000Z,4.9
2022-12-25T08:59:12.000Z,6
2022-12-25T09:01:16.058Z,4.5
2022-12-25T09:05:26.944Z,5.2
2022-12-25T09:07:30.936Z,5.8
2022-12-25T09:09:54.997Z,5.3
2022-12-25T09:14:02.967Z,3.5
2022-12-25T09:16:10.099Z,5.4
2022-12-25T09:18:13.964Z,5.3
2022-12-25T09:20:17.945Z,3.5
2022-12-25T09:22:21.952Z,4.2
2022-12-25T09:28:33.948Z,3.8
2022-12-25T09:32:44.924Z,7
2022-12-25T09:34:49.019Z,4.6
2022-12-25T09:36:52.930Z,3.7
2022-12-25T09:38:56.895Z,4
2022-12-25T09:41:00.904Z,3.5
2022-12-25T09:43:04.904Z,4.4
2022-12-25T09:45:11.909Z,7.7
2022-12-25T09:47:15.879Z,4.9
2022-12-25T09:49:19.873Z,5.7
2022-12-25T09:51:23.862Z,5
2022-12-25T09:53:27.876Z,4.4
2022-12-25T09:55:31.862Z,6.9
2022-12-25T09:57:35.853Z,3.8
2022-12-25T10:01:46.978Z,3.8
2022-12-25T10:04:54.351Z,7.9
2022-12-25T10:09:02.353Z,5.5
2022-12-25T10:13:13.340Z,4.8
2022-12-25T10:15:17.349Z,4.3
2022-12-25T10:17:21.323Z,4.7
2022-12-25T10:19:25.322Z,5.2
2022-12-25T10:21:29.318Z,4.7
2022-12-25T10:23:33.330Z,3.8
2022-12-25T10:27:44.278Z,4.2
2022-12-25T10:29:48.299Z,4.2
2022-12-25T10:31:52.293Z,3.6
2022-12-25T10:33:56.318Z,4.5
2022-12-25T10:36:00.275Z,5.3
2022-12-25T10:38:04.264Z,3.6
2022-12-25T10:40:08.267Z,6.4
2022-12-25T10:42:15.267Z,6.5
2022-12-25T10:44:19.252Z,19.8
2022-12-25T10:46:23.482Z,4.7
2022-12-25T10:48:27.246Z,4.9
2022-12-25T10:50:31.251Z,5.8
2022-12-25T10:52:35.257Z,6.6
2022-12-25T10:54:39.236Z,4.5
2022-12-25T10:58:50.262Z,5.6
2022-12-25T11:00:54.231Z,3.3
2022-12-25T11:10:16.726Z,6.2
2022-12-25T11:12:20.724Z,4.8
2022-12-25T11:14:24.687Z,5.8
2022-12-25T11:16:28.757Z,3.3
2022-12-25T11:18:32.710Z,5.8
2022-12-25T11:20:36.720Z,6.2
2022-12-25T11:24:47.696Z,5
2022-12-25T11:26:51.716Z,4.5
2022-12-25T11:30:59.734Z,1.9
2022-12-25T11:33:03.681Z,4.2
2022-12-25T11:35:07.698Z,3.8
2022-12-25T11:39:18.695Z,8.5
2022-12-25T11:41:22.684Z,3.9
2022-12-25T11:43:26.713Z,4.5
2022-12-25T11:45:30.690Z,4.9
2022-12-25T11:51:42.704Z,5.4
2022-12-25T11:53:49.690Z,5.8
2022-12-25T11:55:53.680Z,5.9
2022-12-25T11:57:57.817Z,7.5
2022-12-25T12:01:05.179Z,3.3
2022-12-25T12:03:09.347Z,4.4
2022-12-25T12:07:20.233Z,5.3
2022-12-25T12:09:24.195Z,6
2022-12-25T12:11:28.227Z,4.1
2022-12-25T12:13:32.238Z,5.1
2022-12-25T12:15:36.223Z,7
2022-12-25T12:17:40.219Z,4.9
2022-12-25T12:19:44.217Z,4.9
2022-12-25T12:21:51.226Z,7.4
2022-12-25T12:23:55.264Z,6.4
2022-12-25T12:28:05.796Z,4.3
2022-12-25T12:30:07.262Z,5.3
2022-12-25T12:32:11.296Z,4.6
2022-12-25T12:34:15.256Z,6.3
2022-12-25T12:36:34.477Z,7.3
2022-12-25T12:38:26.284Z,13.9
2022-12-25T12:40:30.258Z,7.1
2022-12-25T12:42:34.280Z,9.6
2022-12-25T12:44:38.303Z,6.9
2022-12-25T12:48:46.317Z,5.4
2022-12-25T12:50:53.321Z,7.3
2022-12-25T12:52:57.325Z,6.4
2022-12-25T12:55:01.391Z,5.4
2022-12-25T13:01:33.687Z,8.1
2022-12-25T13:03:40.587Z,7.2
2022-12-25T13:07:48.603Z,8.3
2022-12-25T13:09:52.605Z,6.5
2022-12-25T13:14:00.635Z,7.3
2022-12-25T13:18:11.698Z,7.5
2022-12-25T13:20:15.695Z,6.9
2022-12-25T13:26:27.723Z,7.1
2022-12-25T13:28:31.753Z,6.5
2022-12-25T13:30:35.750Z,6.2
2022-12-25T13:32:42.847Z,6.1
2022-12-25T13:34:48.386Z,9
2022-12-25T13:36:52.356Z,8.8
2022-12-25T13:38:56.353Z,7.8
2022-12-25T13:41:00.359Z,7.1
2022-12-25T13:43:04.387Z,6.3
2022-12-25T13:45:09.047Z,4.7
2022-12-25T13:47:15.387Z,10.5
2022-12-25T13:51:23.438Z,7.4
2022-12-25T13:52:26.948Z,7.1
2022-12-25T13:54:30.941Z,8.9
2022-12-25T13:56:34.964Z,6.8
2022-12-25T13:58:38.965Z,9.3
2022-12-25T14:04:54.066Z,9.1
2022-12-25T14:11:06.056Z,12.1
2022-12-25T14:13:10.089Z,7.9
2022-12-25T14:17:21.122Z,13
2022-12-25T14:19:25.140Z,10
2022-12-25T14:21:29.154Z,12.9
2022-12-25T14:23:33.138Z,10.3
2022-12-25T14:25:37.186Z,10.4
2022-12-25T14:27:41.150Z,7.4
2022-12-25T14:44:19.306Z,11.4
2022-12-25T14:46:23.404Z,12
2022-12-25T14:48:27.365Z,15.1
2022-12-25T14:51:34.859Z,12.3
2022-12-25T14:53:38.871Z,10.8
2022-12-25T14:55:42.887Z,11.1
2022-12-25T14:57:49.908Z,8.1
2022-12-25T14:59:53.936Z,10.9
2022-12-25T15:01:58.109Z,12.3
2022-12-25T15:04:02.044Z,25.8
2022-12-25T15:06:06.036Z,26.1
2022-12-25T15:08:10.008Z,18.5
2022-12-25T15:10:57.985Z,13.4
2022-12-25T15:14:25.086Z,13.7
2022-12-25T15:16:29.154Z,16
2022-12-25T15:18:33.082Z,15.1
2022-12-25T15:23:10.113Z,9.8
2022-12-25T15:26:52.127Z,10.9
2022-12-25T15:31:00.240Z,7.3
2022-12-25T15:33:04.191Z,8.6
2022-12-25T15:35:08.186Z,10
2022-12-25T15:37:12.225Z,9
2022-12-25T15:39:16.221Z,15.1
2022-12-25T15:41:23.231Z,10.7
2022-12-25T15:43:40.946Z,353.8
2022-12-25T15:45:31.259Z,349
2022-12-25T15:48:38.800Z,338
2022-12-25T15:50:42.804Z,348
2022-12-25T15:52:46.801Z,348.4
2022-12-25T15:54:53.816Z,350.2
2022-12-25T16:01:05.874Z,347.4
2022-12-25T16:03:10.235Z,349.6
2022-12-25T16:05:13.920Z,345.2
2022-12-25T16:13:32.984Z,341.8
2022-12-25T16:15:37.165Z,340.4
2022-12-25T16:17:41.023Z,350.7
2022-12-25T16:19:45.076Z,341.2
2022-12-25T16:21:49.072Z,341.7
2022-12-25T16:23:56.102Z,348.3
2022-12-25T16:26:00.156Z,350.8
2022-12-25T16:28:04.161Z,353.1
2022-12-25T16:30:08.161Z,355.2
2022-12-25T16:32:12.224Z,356.7
2022-12-25T16:34:16.215Z,349.5
2022-12-25T16:36:25.169Z,353.4
2022-12-25T16:38:27.269Z,352.3
2022-12-25T16:40:31.275Z,350.8
2022-12-25T16:42:35.290Z,351.2
2022-12-25T16:49:07.903Z,357
2022-12-25T16:51:14.935Z,353.5
2022-12-25T16:53:18.957Z,332.9
2022-12-25T16:55:29.449Z,359.1
2022-12-25T16:59:31.013Z,358.6
2022-12-25T17:03:39.117Z,351.2
2022-12-25T17:05:46.086Z,347.6
2022-12-25T17:07:50.127Z,342.7
2022-12-25T17:09:54.080Z,353.5
2022-12-25T17:11:58.120Z,352.4
2022-12-25T17:14:02.219Z,356.1
2022-12-25T17:16:06.156Z,334.3
2022-12-25T17:18:10.137Z,348.9
2022-12-25T17:20:17.160Z,352.1
2022-12-25T17:22:21.178Z,341.2
2022-12-25T17:24:25.193Z,348
2022-12-25T17:26:29.192Z,352.9
2022-12-25T17:28:33.268Z,348.8
2022-12-25T17:30:37.210Z,353.6
2022-12-25T17:34:48.246Z,350.8
2022-12-25T17:38:56.241Z,349.4
2022-12-25T17:39:59.746Z,360.8
2022-12-25T17:42:03.730Z,356.8
2022-12-25T17:44:07.742Z,354.1
2022-12-25T17:46:11.798Z,356.7
2022-12-25T17:48:18.747Z,361.7
2022-12-25T17:50:22.735Z,356.4
2022-12-25T17:52:26.775Z,333.1
2022-12-25T17:54:30.751Z,356.1
2022-12-25T17:56:34.763Z,355.8
2022-12-25T17:58:38.745Z,362.5
2022-12-25T18:00:42.799Z,360.2
2022-12-25T18:04:53.779Z,357.3
2022-12-25T18:06:57.769Z,364.8
2022-12-25T18:09:01.767Z,330.3
2022-12-25T18:11:05.789Z,365.5
2022-12-25T18:13:09.766Z,367.7
2022-12-25T18:15:13.765Z,380.2
2022-12-25T18:17:20.779Z,370.3
2022-12-25T18:19:24.770Z,363.3
2022-12-25T18:21:28.798Z,363
2022-12-25T18:23:32.775Z,358.5
2022-12-25T18:25:36.785Z,356.7
2022-12-25T18:31:51.834Z,364
2022-12-25T18:33:55.819Z,354.2
2022-12-25T18:35:59.740Z,359.5
2022-12-25T18:39:07.263Z,353.1
2022-12-25T18:41:11.271Z,357.9
2022-12-25T18:47:26.258Z,353.9
2022-12-25T18:53:38.257Z,350.4
2022-12-25T18:55:42.246Z,348.2
2022-12-25T18:57:46.241Z,348.4
2022-12-25T18:59:53.259Z,352.8
2022-12-25T19:01:57.336Z,357.9
2022-12-25T19:04:05.653Z,352.6
2022-12-25T19:06:05.286Z,350.4
2022-12-25T19:08:09.234Z,359.1
2022-12-25T19:10:13.229Z,352.6
2022-12-25T19:14:24.222Z,366.5
2022-12-25T19:16:28.266Z,364.6
2022-12-25T19:18:32.208Z,362.8
2022-12-25T19:22:40.190Z,359.6
2022-12-25T19:24:44.342Z,364.5
2022-12-25T19:26:48.206Z,361.3
2022-12-25T19:28:55.191Z,361.9
2022-12-25T19:30:59.205Z,359.9
2022-12-25T19:33:04.760Z,353.2
2022-12-25T19:34:08.213Z,359.2
2022-12-25T19:36:12.240Z,357.4
2022-12-25T19:38:16.222Z,353
2022-12-25T19:42:27.241Z,371.4
2022-12-25T19:44:31.213Z,374.9
2022-12-25T19:48:39.213Z,366.9
2022-12-25T19:50:43.219Z,353
2022-12-25T19:52:47.212Z,352
2022-12-25T19:54:51.186Z,350.7
2022-12-25T19:56:58.227Z,358.5
2022-12-25T19:59:02.225Z,355.8
2022-12-25T20:01:06.274Z,351.7
2022-12-25T20:03:10.217Z,357.9
2022-12-25T20:05:14.159Z,350.5
2022-12-25T20:07:18.194Z,353.5
2022-12-25T20:09:22.152Z,348.3
2022-12-25T20:11:29.164Z,353.3
2022-12-25T20:13:33.161Z,353
2022-12-25T20:15:37.170Z,351.5
2022-12-25T20:17:41.179Z,357.9
2022-12-25T20:19:45.165Z,347.7
2022-12-25T20:21:49.139Z,356.4
2022-12-25T20:23:53.135Z,355.2
2022-12-25T20:26:00.174Z,357.8
2022-12-25T20:28:04.156Z,347.4
2022-12-25T20:30:08.166Z,360
2022-12-25T20:32:30.172Z,365.1
2022-12-25T20:34:34.172Z,357.6
2022-12-25T20:36:38.428Z,346.9
2022-12-25T20:51:09.131Z,353.1
2022-12-25T20:53:16.193Z,345.9
2022-12-25T20:55:20.185Z,360.3
2022-12-25T20:57:24.140Z,361.1
2022-12-25T20:59:33.486Z,344.1
2022-12-25T21:01:32.392Z,362
2022-12-25T21:03:36.224Z,361
2022-12-25T21:05:40.123Z,361.3
2022-12-25T21:07:47.120Z,350.1
2022-12-25T21:09:51.128Z,355
2022-12-25T21:11:55.170Z,353.5
2022-12-25T21:13:59.140Z,359.9
2022-12-25T21:16:03.118Z,346
2022-12-25T21:18:07.120Z,344.3
2022-12-25T21:20:11.140Z,347.7
2022-12-25T21:22:18.225Z,355.7
2022-12-25T21:26:26.166Z,358.2
2022-12-25T21:27:29.651Z,355.9
2022-12-25T21:31:37.669Z,353.7
2022-12-25T21:33:41.667Z,356.4
2022-12-25T21:35:48.695Z,355.9
2022-12-25T21:37:52.675Z,351.5
2022-12-25T21:39:56.688Z,348.7
2022-12-25T21:42:00.689Z,347.9
2022-12-25T21:44:04.700Z,355.9
2022-12-25T21:46:08.757Z,360.4
2022-12-25T21:48:12.692Z,353.6
2022-12-25T21:50:19.732Z,357.5
2022-12-25T21:52:23.749Z,346.9
2022-12-25T21:54:27.754Z,347.5
2022-12-25T21:56:31.765Z,348.7
2022-12-25T21:58:35.750Z,337.2
2022-12-25T22:00:39.759Z,343.9
2022-12-25T22:02:43.923Z,330.7
2022-12-25T22:04:50.767Z,325.5
2022-12-25T22:06:54.773Z,336.5
2022-12-25T22:08:58.796Z,328.5
2022-12-25T22:11:02.826Z,324.4
2022-12-25T22:13:06.860Z,320.7
2022-12-25T22:17:14.814Z,320.4
2022-12-25T22:19:21.827Z,301.3
2022-12-25T22:21:25.891Z,310.4
2022-12-25T22:23:29.855Z,323.5
2022-12-25T22:24:33.383Z,332.1
2022-12-25T22:26:37.342Z,333.6
2022-12-25T22:28:41.378Z,330
2022-12-25T22:30:45.419Z,334.1
2022-12-25T22:34:56.397Z,331.5
2022-12-25T22:45:16.474Z,344.4
2022-12-25T22:47:23.460Z,337
2022-12-25T22:49:27.466Z,337
2022-12-25T22:53:35.525Z,315.6
2022-12-25T22:55:39.513Z,316.7
2022-12-25T22:57:43.531Z,319.6
2022-12-25T23:01:54.673Z,313.3
2022-12-25T23:03:58.659Z,325.2
2022-12-25T23:06:02.615Z,328.4
2022-12-25T23:08:06.618Z,336.8
2022-12-25T23:10:10.613Z,339.4
2022-12-25T23:12:14.688Z,332.7
2022-12-25T23:14:18.656Z,341.3
2022-12-25T23:16:25.795Z,326.2
2022-12-25T23:18:29.685Z,332.1
2022-12-25T23:20:33.714Z,325.7
2022-12-25T23:21:37.216Z,330.2
2022-12-25T23:23:41.231Z,323.4
2022-12-25T23:25:45.349Z,327.6
2022-12-25T23:27:49.273Z,322.6
2022-12-25T23:29:56.286Z,327.7
2022-12-25T23:34:04.327Z,320.9
2022-12-25T23:36:08.334Z,321.6
2022-12-25T23:38:12.338Z,321.2
2022-12-25T23:40:16.342Z,323.3
2022-12-25T23:42:20.357Z,317.8
2022-12-25T23:44:27.380Z,315.2
2022-12-25T23:46:31.471Z,317
2022-12-25T23:48:35.393Z,315.5
2022-12-25T23:50:39.442Z,318.1
2022-12-25T23:52:43.408Z,320.3
2022-12-25T23:54:47.449Z,318.5
2022-12-25T23:56:51.462Z,320.9
